createdAt,value
2018-01-31T01:52:20.578Z,83.98
2018-01-31T01:52:21.952Z,87.28
2018-01-31T01:54:21.778Z,87.64
2018-01-31T01:56:49.242Z,87.66
2018-01-31T01:59:16.727Z,87.95
2018-01-31T02:01:44.184Z,88.13
2018-01-31T03:09:56.704Z,86.33
2018-01-31T03:12:24.167Z,86.23
2018-01-31T03:14:51.653Z,86.59
2018-01-31T03:17:19.121Z,86.21
2018-01-31T03:19:46.615Z,85.77
2018-01-31T03:22:14.066Z,85.77
2018-01-31T03:24:42.392Z,85.64
2018-01-31T03:27:09.842Z,85.70
2018-01-31T03:29:37.327Z,86.09
2018-01-31T03:32:04.799Z,86.29
2018-01-31T03:34:32.309Z,85.97
2018-01-31T03:36:59.775Z,85.75
2018-01-31T03:39:27.268Z,85.97
2018-01-31T03:41:54.723Z,85.79
2018-01-31T03:44:22.180Z,85.93
2018-01-31T03:46:49.680Z,86.13
2018-01-31T03:49:17.132Z,86.18
2018-01-31T03:51:44.613Z,85.57
2018-01-31T03:54:12.071Z,85.33
2018-01-31T03:56:39.554Z,85.46
2018-01-31T03:59:07.002Z,84.79
2018-01-31T04:01:34.467Z,85.37
2018-01-31T04:04:01.929Z,84.86
2018-01-31T04:06:29.400Z,84.91
2018-01-31T04:08:56.845Z,85.07
2018-01-31T04:11:24.337Z,84.99
2018-01-31T04:13:51.791Z,84.55
2018-01-31T04:16:19.254Z,85.19
2018-01-31T04:18:46.706Z,85.23
2018-01-31T04:21:14.185Z,85.15
2018-01-31T04:23:41.631Z,84.71
2018-01-31T04:26:09.104Z,85.42
2018-01-31T04:28:36.562Z,85.32
2018-01-31T04:31:04.032Z,85.28
2018-01-31T04:33:31.497Z,85.33
2018-01-31T04:35:58.987Z,84.57
2018-01-31T04:38:26.438Z,85.06
2018-01-31T04:40:53.913Z,85.23
2018-01-31T04:43:21.368Z,85.15
2018-01-31T04:45:48.839Z,86.10
2018-01-31T04:48:16.288Z,85.79
2018-01-31T04:50:43.763Z,86.18
2018-01-31T04:53:11.206Z,85.99
2018-01-31T04:55:38.685Z,86.33
2018-01-31T04:58:06.134Z,85.70
2018-01-31T05:00:33.668Z,85.83
2018-01-31T05:03:01.122Z,85.91
2018-01-31T05:05:28.599Z,85.91
2018-01-31T05:07:56.076Z,85.23
2018-01-31T05:10:23.530Z,85.66
2018-01-31T05:12:51.008Z,85.93
2018-01-31T05:15:18.454Z,85.96
2018-01-31T05:17:45.914Z,85.75
2018-01-31T05:20:13.366Z,85.32
2018-01-31T05:22:40.838Z,85.80
2018-01-31T05:25:08.282Z,85.28
2018-01-31T05:27:35.758Z,85.00
2018-01-31T05:30:03.223Z,85.50
2018-01-31T05:32:30.700Z,85.55
2018-01-31T05:34:58.158Z,85.75
2018-01-31T05:37:25.632Z,86.00
2018-01-31T05:39:53.086Z,86.11
2018-01-31T05:42:20.550Z,85.77
2018-01-31T05:44:48.040Z,86.18
2018-01-31T05:47:15.623Z,85.52
2018-01-31T05:49:43.075Z,85.89
2018-01-31T05:52:10.551Z,85.58
2018-01-31T05:54:38.002Z,85.08
2018-01-31T05:57:05.479Z,85.33
2018-01-31T05:59:32.926Z,85.61
2018-01-31T06:02:00.401Z,85.34
2018-01-31T06:04:27.856Z,85.26
2018-01-31T06:06:55.333Z,85.34
2018-01-31T06:09:22.792Z,85.12
2018-01-31T06:11:50.267Z,84.82
2018-01-31T06:14:17.734Z,84.79
2018-01-31T06:16:51.832Z,84.93
2018-01-31T06:19:19.286Z,84.36
2018-01-31T06:21:46.777Z,84.44
2018-01-31T06:24:14.228Z,84.18
2018-01-31T06:26:41.774Z,83.69
2018-01-31T06:29:09.235Z,83.95
2018-01-31T06:31:36.716Z,83.97
2018-01-31T06:34:04.170Z,83.79
2018-01-31T06:36:31.637Z,84.04
2018-01-31T06:38:59.109Z,83.72
2018-01-31T06:41:26.595Z,84.10
2018-01-31T06:43:54.070Z,83.79
2018-01-31T06:46:21.522Z,84.37
2018-01-31T06:48:49.003Z,83.86
2018-01-31T06:51:16.471Z,83.89
2018-01-31T06:53:43.948Z,84.03
2018-01-31T06:56:11.413Z,83.06
2018-01-31T06:58:38.899Z,82.58
2018-01-31T07:01:06.354Z,82.48
2018-01-31T07:03:33.860Z,82.89
2018-01-31T07:06:01.307Z,83.28
2018-01-31T07:08:28.783Z,83.58
2018-01-31T07:10:56.298Z,83.84
2018-01-31T07:13:23.759Z,83.76
2018-01-31T07:15:51.218Z,83.71
2018-01-31T07:18:18.692Z,84.03
2018-01-31T07:20:46.147Z,83.53
2018-01-31T07:23:13.630Z,83.22
2018-01-31T07:25:41.091Z,83.26
2018-01-31T07:28:08.576Z,82.70
2018-01-31T07:30:36.069Z,82.51
2018-01-31T07:33:03.543Z,82.69
2018-01-31T07:35:31.023Z,83.06
2018-01-31T07:37:58.494Z,82.88
2018-01-31T07:40:25.959Z,83.04
2018-01-31T07:42:53.454Z,83.29
2018-01-31T07:45:20.927Z,83.09
2018-01-31T07:47:48.398Z,83.08
2018-01-31T07:50:15.860Z,83.54
2018-01-31T07:52:43.345Z,82.54
2018-01-31T07:55:10.809Z,81.64
2018-01-31T07:57:38.309Z,81.16
2018-01-31T08:00:05.772Z,81.68
2018-01-31T08:02:33.270Z,81.88
2018-01-31T08:05:00.735Z,81.37
2018-01-31T08:07:28.249Z,81.50
2018-01-31T08:09:55.730Z,80.84
2018-01-31T08:12:23.182Z,80.64
2018-01-31T08:14:50.663Z,80.79
2018-01-31T08:17:18.132Z,80.10
2018-01-31T08:19:45.607Z,80.33
2018-01-31T08:22:13.075Z,79.03
2018-01-31T08:24:40.559Z,79.62
2018-01-31T08:27:08.019Z,78.90
2018-01-31T08:29:35.490Z,79.29
2018-01-31T08:32:02.950Z,79.83
2018-01-31T08:34:30.433Z,78.44
2018-01-31T08:36:57.892Z,78.98
2018-01-31T08:39:25.381Z,78.49
2018-01-31T08:41:52.839Z,78.72
2018-01-31T08:44:20.362Z,78.32
2018-01-31T08:46:47.815Z,77.98
2018-01-31T08:49:15.305Z,77.99
2018-01-31T08:51:42.763Z,78.14
2018-01-31T08:54:10.239Z,77.65
2018-01-31T08:56:37.707Z,77.32
2018-01-31T08:59:06.102Z,77.13
2018-01-31T09:01:33.558Z,76.57
2018-01-31T09:04:01.040Z,76.89
2018-01-31T09:06:28.508Z,76.85
2018-01-31T09:08:55.990Z,76.89
2018-01-31T09:11:23.453Z,76.16
2018-01-31T09:13:50.931Z,76.35
2018-01-31T09:16:18.399Z,76.48
2018-01-31T09:18:45.879Z,76.68
2018-01-31T09:21:13.343Z,75.60
2018-01-31T09:23:40.826Z,76.34
2018-01-31T09:26:08.298Z,76.34
2018-01-31T09:28:35.751Z,76.67
2018-01-31T09:31:03.229Z,76.47
2018-01-31T09:33:30.687Z,76.26
2018-01-31T09:35:58.172Z,76.96
2018-01-31T09:38:25.636Z,77.11
2018-01-31T09:40:53.120Z,76.98
2018-01-31T09:43:20.580Z,76.35
2018-01-31T09:45:48.072Z,76.46
2018-01-31T09:48:15.541Z,76.89
2018-01-31T09:50:43.058Z,76.29
2018-01-31T09:53:10.501Z,76.48
2018-01-31T09:55:37.980Z,75.94
2018-01-31T09:58:05.463Z,77.08
2018-01-31T10:00:32.935Z,75.62
2018-01-31T10:03:00.419Z,76.32
2018-01-31T10:05:27.896Z,75.44
2018-01-31T10:07:55.352Z,76.01
2018-01-31T10:10:22.827Z,75.29
2018-01-31T10:12:50.290Z,75.06
2018-01-31T10:15:17.771Z,74.45
2018-01-31T10:17:45.228Z,74.43
2018-01-31T10:20:12.711Z,73.83
2018-01-31T10:22:40.177Z,74.15
2018-01-31T10:25:07.661Z,75.42
2018-01-31T10:27:35.122Z,76.07
2018-01-31T10:30:02.594Z,77.08
2018-01-31T10:32:30.064Z,76.84
2018-01-31T10:34:57.542Z,76.91
2018-01-31T10:37:24.998Z,76.58
2018-01-31T10:39:52.479Z,77.38
2018-01-31T10:42:19.943Z,78.34
2018-01-31T10:44:47.420Z,76.48
2018-01-31T10:47:14.877Z,76.14
2018-01-31T10:49:42.367Z,76.30
2018-01-31T10:52:09.878Z,76.20
2018-01-31T10:57:28.912Z,75.67
2018-01-31T10:59:32.378Z,75.65
2018-01-31T11:01:59.853Z,75.21
2018-01-31T11:04:27.310Z,75.90
2018-01-31T11:06:54.901Z,76.35
2018-01-31T11:09:22.354Z,76.64
2018-01-31T11:11:49.835Z,75.97
2018-01-31T11:14:17.303Z,75.71
2018-01-31T11:16:44.779Z,76.25
2018-01-31T11:19:12.236Z,76.47
2018-01-31T11:21:39.792Z,74.98
2018-01-31T11:24:07.243Z,75.30
2018-01-31T11:26:34.722Z,76.33
2018-01-31T11:29:02.195Z,75.55
2018-01-31T11:31:29.667Z,75.28
2018-01-31T11:33:57.123Z,75.15
2018-01-31T11:36:24.683Z,75.27
2018-01-31T11:38:52.140Z,74.03
2018-01-31T11:41:19.667Z,74.85
2018-01-31T11:43:47.199Z,75.03
2018-01-31T11:46:14.684Z,74.23
2018-01-31T11:48:42.154Z,74.28
2018-01-31T11:51:09.626Z,74.16
2018-01-31T11:53:37.083Z,75.07
2018-01-31T11:56:04.560Z,74.87
2018-01-31T11:58:32.019Z,75.12
2018-01-31T12:00:59.494Z,75.21
2018-01-31T12:03:26.951Z,75.03
2018-01-31T12:05:54.426Z,74.80
2018-01-31T12:08:21.879Z,75.37
2018-01-31T12:10:49.343Z,75.07
2018-01-31T12:16:36.370Z,74.69
2018-01-31T12:22:16.514Z,74.30
2018-01-31T12:24:55.714Z,74.72
2018-01-31T12:27:34.963Z,74.24
2018-01-31T12:30:14.014Z,74.25
2018-01-31T12:32:53.247Z,74.48
2018-01-31T12:35:32.962Z,74.45
2018-01-31T12:38:12.284Z,74.35
2018-01-31T12:40:39.190Z,74.43
2018-01-31T12:43:06.140Z,74.09
2018-01-31T12:45:33.080Z,74.09
2018-01-31T12:48:06.395Z,74.01
2018-01-31T12:50:45.699Z,73.25
2018-01-31T12:53:24.976Z,72.92
2018-01-31T12:56:04.058Z,73.53
2018-01-31T12:58:43.194Z,73.84
2018-01-31T13:01:22.416Z,73.21
2018-01-31T13:04:02.009Z,73.63
2018-01-31T13:06:41.371Z,74.35
2018-01-31T13:09:18.559Z,74.18
2018-01-31T13:11:57.910Z,74.56
2018-01-31T13:14:37.168Z,74.55
2018-01-31T13:17:16.409Z,74.75
2018-01-31T13:19:55.576Z,75.39
2018-01-31T13:22:34.812Z,75.13
2018-01-31T13:25:14.860Z,75.66
2018-01-31T13:27:59.896Z,75.95
2018-01-31T13:30:39.188Z,78.31
2018-01-31T13:33:24.277Z,80.49
2018-01-31T13:39:05.350Z,81.76
2018-01-31T13:41:44.631Z,83.18
2018-01-31T13:44:23.906Z,82.32
2018-01-31T13:47:03.163Z,82.77
2018-01-31T13:49:42.303Z,82.77
2018-01-31T13:52:27.294Z,82.91
2018-01-31T13:58:08.122Z,82.74
2018-01-31T14:00:47.289Z,82.67
2018-01-31T14:03:26.412Z,82.19
2018-01-31T14:06:05.557Z,81.98
2018-01-31T14:08:44.874Z,82.42
2018-01-31T14:11:24.007Z,83.13
2018-01-31T14:14:03.168Z,82.90
2018-01-31T14:16:42.168Z,82.69
2018-01-31T14:19:21.332Z,82.65
2018-01-31T14:22:00.553Z,82.58
2018-01-31T14:24:39.778Z,82.41
2018-01-31T14:27:19.079Z,83.18
2018-01-31T14:29:58.280Z,83.08
2018-01-31T14:32:37.414Z,84.39
2018-01-31T14:35:16.607Z,83.51
2018-01-31T14:37:43.529Z,83.66
2018-01-31T14:40:10.468Z,84.23
2018-01-31T14:42:37.383Z,84.53
2018-01-31T14:45:04.298Z,85.41
2018-01-31T14:47:31.273Z,85.45
2018-01-31T14:49:59.178Z,85.45
2018-01-31T14:52:26.107Z,86.98
2018-01-31T14:54:53.018Z,87.65
2018-01-31T14:57:19.946Z,88.90
2018-01-31T14:59:46.858Z,89.25
2018-01-31T15:02:13.787Z,90.71
2018-01-31T15:04:40.700Z,90.07
2018-01-31T15:07:07.699Z,90.39
2018-01-31T15:09:34.608Z,91.17
2018-01-31T15:12:01.590Z,90.20
2018-01-31T15:14:28.491Z,90.92
2018-01-31T15:16:55.402Z,90.16
2018-01-31T15:19:22.336Z,89.85
2018-01-31T15:21:49.255Z,89.41
2018-01-31T15:24:16.190Z,89.82
2018-01-31T15:26:43.111Z,89.36
2018-01-31T15:29:10.047Z,88.96
2018-01-31T15:31:36.995Z,88.67
2018-01-31T15:34:03.945Z,89.76
2018-01-31T15:36:30.850Z,89.39
2018-01-31T15:38:57.791Z,88.73
2018-01-31T15:41:24.700Z,89.96
2018-01-31T15:43:51.634Z,90.29
2018-01-31T15:46:18.548Z,90.35
2018-01-31T15:48:45.510Z,91.17
2018-01-31T15:51:12.455Z,90.63
2018-01-31T15:53:39.398Z,90.13
2018-01-31T15:56:06.328Z,90.93
2018-01-31T15:58:33.262Z,89.96
2018-01-31T16:01:00.170Z,90.12
2018-01-31T16:03:27.099Z,90.87
2018-01-31T16:05:54.024Z,91.59
2018-01-31T16:08:20.954Z,90.43
2018-01-31T16:10:47.880Z,87.96
2018-01-31T16:13:14.887Z,88.43
2018-01-31T16:15:41.804Z,89.91
2018-01-31T16:18:09.270Z,89.52
2018-01-31T16:20:48.423Z,90.54
2018-01-31T16:23:15.890Z,86.65
2018-01-31T16:25:43.336Z,87.40
2018-01-31T16:31:09.859Z,87.60
2018-01-31T16:33:37.330Z,88.37
2018-01-31T16:36:04.778Z,88.94
2018-01-31T16:38:32.263Z,89.17
2018-01-31T16:41:00.060Z,89.40
2018-01-31T16:43:27.515Z,89.16
2018-01-31T16:45:54.992Z,87.64
2018-01-31T16:48:22.439Z,88.36
2018-01-31T16:50:49.915Z,89.08
2018-01-31T16:53:17.367Z,89.02
2018-01-31T16:55:45.061Z,88.60
2018-01-31T16:58:12.517Z,88.54
2018-01-31T17:00:39.987Z,89.09
2018-01-31T17:03:07.443Z,88.29
2018-01-31T17:05:34.907Z,88.41
2018-01-31T17:08:02.353Z,89.48
2018-01-31T17:10:29.819Z,87.21
2018-01-31T17:12:57.277Z,88.42
2018-01-31T17:15:24.747Z,88.84
2018-01-31T17:17:52.195Z,88.50
2018-01-31T17:20:19.664Z,88.06
2018-01-31T17:22:47.124Z,88.68
2018-01-31T17:25:14.591Z,88.16
2018-01-31T17:27:42.054Z,88.60
2018-01-31T17:30:09.531Z,88.05
2018-01-31T17:32:36.988Z,87.70
2018-01-31T17:35:04.462Z,87.67
2018-01-31T17:37:31.915Z,87.86
2018-01-31T17:39:59.384Z,87.37
2018-01-31T17:42:26.839Z,88.32
2018-01-31T17:44:54.306Z,88.61
2018-01-31T17:47:21.754Z,87.75
2018-01-31T17:49:49.219Z,88.30
2018-01-31T17:52:16.691Z,86.76
2018-01-31T17:54:44.156Z,87.98
2018-01-31T17:57:11.608Z,87.63
2018-01-31T17:59:39.082Z,86.08
2018-01-31T18:02:06.539Z,86.26
2018-01-31T18:04:34.007Z,84.89
2018-01-31T18:07:01.483Z,84.78
2018-01-31T18:12:02.807Z,83.79
2018-01-31T18:14:30.256Z,84.27
2018-01-31T18:16:57.727Z,84.17
2018-01-31T18:19:25.185Z,84.47
2018-01-31T18:21:52.656Z,84.05
2018-01-31T18:24:20.111Z,84.77
2018-01-31T18:26:47.612Z,84.60
2018-01-31T18:29:15.059Z,85.19
2018-01-31T18:31:42.523Z,84.87
2018-01-31T18:34:09.975Z,84.86
2018-01-31T18:36:37.443Z,84.51
2018-01-31T18:39:04.883Z,84.69
2018-01-31T18:41:32.356Z,84.56
2018-01-31T18:44:02.027Z,84.03
2018-01-31T18:46:29.665Z,83.92
2018-01-31T18:48:57.119Z,84.32
2018-01-31T18:51:24.626Z,84.17
2018-01-31T18:53:52.104Z,84.56
2018-01-31T18:56:19.584Z,83.86
2018-01-31T18:58:47.050Z,85.01
2018-01-31T19:01:14.555Z,84.87
2018-01-31T19:03:42.024Z,84.73
2018-01-31T19:06:09.495Z,84.31
2018-01-31T19:08:36.951Z,84.50
2018-01-31T19:11:04.437Z,83.94
2018-01-31T19:13:31.920Z,84.96
2018-01-31T19:15:59.405Z,84.02
2018-01-31T19:18:26.882Z,83.32
2018-01-31T19:20:54.363Z,83.20
2018-01-31T19:23:21.835Z,83.65
2018-01-31T19:25:49.333Z,83.89
2018-01-31T19:28:16.835Z,83.05
2018-01-31T19:30:44.339Z,83.22
2018-01-31T19:33:11.817Z,83.41
2018-01-31T19:35:39.274Z,83.66
2018-01-31T19:38:06.771Z,83.22
2018-01-31T19:40:40.891Z,83.44
2018-01-31T19:43:08.378Z,83.26
2018-01-31T19:45:35.840Z,83.63
2018-01-31T19:48:03.367Z,83.86
2018-01-31T19:50:30.840Z,83.47
2018-01-31T19:53:04.183Z,84.38
2018-01-31T19:55:31.658Z,84.33
2018-01-31T19:57:59.185Z,83.92
2018-01-31T20:00:26.672Z,83.72
2018-01-31T20:02:54.184Z,83.76
2018-01-31T20:05:22.339Z,84.28
2018-01-31T20:07:51.751Z,84.50
2018-01-31T20:10:19.220Z,84.40
2018-01-31T20:12:46.707Z,84.77
2018-01-31T20:15:14.246Z,85.19
2018-01-31T20:17:41.755Z,84.77
2018-01-31T20:20:09.232Z,85.07
2018-01-31T20:22:36.736Z,85.13
2018-01-31T20:25:04.237Z,85.57
2018-01-31T20:27:49.981Z,85.50
2018-01-31T20:30:17.551Z,85.67
2018-01-31T20:32:45.039Z,86.12
2018-01-31T20:35:12.540Z,85.63
2018-01-31T20:37:40.040Z,85.88
2018-01-31T20:40:07.537Z,84.84
2018-01-31T20:42:35.052Z,82.43
2018-01-31T20:45:02.564Z,80.62
2018-01-31T20:47:30.205Z,80.26
2018-01-31T20:49:57.710Z,81.74
2018-01-31T20:52:25.208Z,84.18
2018-01-31T20:54:52.668Z,83.43
2018-01-31T20:57:20.214Z,86.75
2018-01-31T20:59:47.663Z,89.70
2018-01-31T21:02:15.917Z,90.42
2018-01-31T21:04:43.396Z,89.30
2018-01-31T21:07:10.893Z,88.13
2018-01-31T21:09:38.367Z,87.60
2018-01-31T21:12:05.874Z,87.46
2018-01-31T21:14:33.358Z,87.69
2018-01-31T21:17:00.935Z,85.33
2018-01-31T21:19:28.492Z,85.12
2018-01-31T21:21:55.951Z,85.70
2018-01-31T21:24:24.224Z,85.68
2018-01-31T21:26:51.742Z,85.18
2018-01-31T21:29:19.288Z,85.55
2018-01-31T21:31:46.792Z,85.74
2018-01-31T21:34:14.285Z,86.22
2018-01-31T21:36:41.762Z,86.69
2018-01-31T21:39:09.259Z,85.73
2018-01-31T21:41:36.711Z,85.81
2018-01-31T21:44:04.183Z,86.84
2018-01-31T21:46:31.630Z,88.02
2018-01-31T21:48:59.130Z,87.63
2018-01-31T21:51:26.582Z,87.59
2018-01-31T21:53:54.046Z,88.02
2018-01-31T21:56:21.498Z,87.36
2018-01-31T21:58:48.969Z,87.76
2018-01-31T22:01:16.416Z,87.89
2018-01-31T22:03:43.868Z,88.23
2018-01-31T22:06:11.351Z,87.18
2018-01-31T22:08:38.808Z,87.25
2018-01-31T22:11:06.274Z,87.35
2018-01-31T22:13:33.722Z,87.53
2018-01-31T22:16:01.198Z,87.42
2018-01-31T22:18:28.646Z,87.42
2018-01-31T22:20:56.122Z,87.42
2018-01-31T22:23:23.575Z,88.09
2018-01-31T22:25:51.046Z,87.67
2018-01-31T22:28:18.491Z,88.13
2018-01-31T22:30:45.954Z,87.46
2018-01-31T22:33:13.407Z,87.92
2018-01-31T22:35:40.883Z,87.31
2018-01-31T22:38:08.331Z,87.52
2018-01-31T22:40:35.799Z,87.35
2018-01-31T22:43:03.243Z,87.74
2018-01-31T22:45:30.707Z,87.46
2018-01-31T22:47:58.163Z,87.28
2018-01-31T22:50:25.634Z,87.54
2018-01-31T22:52:53.086Z,87.38
2018-01-31T22:55:20.554Z,87.06
2018-01-31T22:57:48.004Z,86.54
2018-01-31T23:00:15.470Z,86.22
2018-01-31T23:02:42.922Z,86.89
2018-01-31T23:05:10.400Z,86.51
2018-01-31T23:07:37.859Z,86.84
2018-01-31T23:10:05.335Z,87.25
2018-01-31T23:12:32.783Z,87.00
2018-01-31T23:15:00.256Z,86.92
2018-01-31T23:17:33.319Z,86.96
2018-01-31T23:20:00.795Z,86.58
2018-01-31T23:22:28.243Z,86.67
2018-01-31T23:24:55.719Z,86.85
2018-01-31T23:27:23.171Z,86.75
2018-01-31T23:29:50.623Z,86.97
2018-01-31T23:32:18.095Z,86.58
2018-01-31T23:34:45.543Z,86.92
2018-01-31T23:37:13.015Z,87.25
2018-01-31T23:39:40.474Z,86.99
2018-01-31T23:42:07.957Z,86.90
2018-01-31T23:44:35.399Z,87.21
2018-01-31T23:47:02.885Z,87.14
2018-01-31T23:49:30.346Z,87.35
2018-01-31T23:51:57.819Z,87.54
2018-01-31T23:54:25.263Z,87.61
2018-01-31T23:56:52.735Z,87.16
2018-01-31T23:59:20.211Z,87.12
